Time;durP1;ratioP1;P1;durP2;ratioP2;P2;SDS_P1;SDS_P2;PMS_P1;PMS_P2;Temp;Humidity;BMP_temperature;BMP_pressure;BME280_temperature;BME280_humidity;BME280_pressure;Samples;Min_cycle;Max_cycle;Signal;HPM_P1;HPM_P2
2022/11/12 00:00:47;;;;;;;2.30;1.10;;;5.80;90.30;;;;;;4975240;28;20046;-72
2022/11/12 00:03:13;;;;;;;2.42;1.50;;;5.80;90.40;;;;;;4992745;28;20041;-72
2022/11/12 00:05:39;;;;;;;2.03;1.20;;;5.80;90.40;;;;;;4992892;28;20031;-72
2022/11/12 00:08:04;;;;;;;1.98;1.10;;;5.70;90.40;;;;;;4975455;28;20042;-72
2022/11/12 00:10:31;;;;;;;1.88;1.30;;;5.80;90.40;;;;;;4975554;28;20034;-72
2022/11/12 00:12:57;;;;;;;1.85;1.23;;;5.80;90.40;;;;;;4992101;28;20074;-72
2022/11/12 00:15:22;;;;;;;2.42;1.27;;;5.80;90.40;;;;;;4992457;28;20062;-72
2022/11/12 00:17:48;;;;;;;3.03;1.38;;;5.80;90.40;;;;;;4992312;28;20047;-73
2022/11/12 00:20:14;;;;;;;1.85;1.13;;;5.70;90.40;;;;;;4992173;28;20046;-72
2022/11/12 00:22:39;;;;;;;2.53;1.35;;;5.70;90.40;;;;;;4992456;28;20387;-73
2022/11/12 00:25:06;;;;;;;1.70;1.20;;;5.70;90.40;;;;;;4992619;28;20081;-73
2022/11/12 00:27:32;;;;;;;2.03;1.10;;;5.70;90.40;;;;;;4992671;28;20420;-72
2022/11/12 00:29:58;;;;;;;1.65;1.08;;;5.70;90.40;;;;;;4975233;28;20050;-73
2022/11/12 00:32:24;;;;;;;2.88;1.40;;;5.70;90.40;;;;;;4992499;28;20081;-72
2022/11/12 00:34:49;;;;;;;2.50;1.30;;;5.70;90.40;;;;;;4991993;28;20100;-73
2022/11/12 00:37:15;;;;;;;2.75;1.48;;;5.70;90.40;;;;;;4992459;28;20039;-72
2022/11/12 00:39:41;;;;;;;2.28;1.30;;;5.70;90.30;;;;;;4992367;28;20045;-72
2022/11/12 00:42:07;;;;;;;1.77;1.30;;;5.70;90.30;;;;;;4992389;28;20463;-72
2022/11/12 00:44:33;;;;;;;1.77;1.13;;;5.70;90.30;;;;;;4958350;28;20038;-73
2022/11/12 00:46:59;;;;;;;1.95;1.15;;;5.70;90.30;;;;;;4991845;28;20074;-72
2022/11/12 00:49:24;;;;;;;2.95;1.25;;;5.70;90.30;;;;;;4991618;28;20054;-72
2022/11/12 00:51:50;;;;;;;2.45;1.30;;;5.70;90.30;;;;;;4991686;28;20026;-72
2022/11/12 00:54:16;;;;;;;1.58;1.08;;;5.60;90.30;;;;;;4974449;28;20039;-72
2022/11/12 00:56:44;;;;;;;1.60;1.10;;;5.60;90.30;;;;;;4991604;28;20030;-72
2022/11/12 00:59:10;;;;;;;2.10;1.10;;;5.60;90.30;;;;;;4974659;28;20050;-72
2022/11/12 01:01:36;;;;;;;2.50;1.30;;;5.70;90.40;;;;;;4991734;28;20030;-73
2022/11/12 01:04:01;;;;;;;1.90;1.10;;;5.60;90.30;;;;;;4973954;28;20402;-72
2022/11/12 01:06:27;;;;;;;2.05;1.15;;;5.60;90.30;;;;;;4991383;28;20124;-72
2022/11/12 01:08:55;;;;;;;2.35;1.30;;;5.60;90.40;;;;;;4992004;28;20038;-72
2022/11/12 01:11:23;;;;;;;2.42;1.25;;;5.50;90.40;;;;;;4991627;28;20034;-72
2022/11/12 01:13:56;;;;;;;2.15;1.27;;;5.50;90.40;;;;;;4991438;28;20042;-72
2022/11/12 01:16:24;;;;;;;1.52;1.05;;;5.50;90.40;;;;;;4991607;28;20050;-73
2022/11/12 01:18:55;;;;;;;2.35;1.30;;;5.50;90.40;;;;;;4991883;28;20035;-72
2022/11/12 01:21:23;;;;;;;2.13;1.17;;;5.40;90.40;;;;;;4974402;28;20053;-73
2022/11/12 01:23:48;;;;;;;1.60;1.00;;;5.40;90.40;;;;;;4991515;28;20048;-73
2022/11/12 01:26:17;;;;;;;1.95;1.23;;;5.40;90.40;;;;;;4974335;28;20039;-73
2022/11/12 01:28:43;;;;;;;2.63;1.10;;;5.40;90.50;;;;;;4991388;28;20043;-73
2022/11/12 01:31:15;;;;;;;2.63;1.20;;;5.30;90.40;;;;;;4973667;28;20035;-73
2022/11/12 01:33:42;;;;;;;1.70;1.00;;;5.40;90.40;;;;;;4991058;28;20054;-72
2022/11/12 01:36:09;;;;;;;1.05;0.80;;;5.40;90.50;;;;;;4957449;28;20129;-73
2022/11/12 01:38:36;;;;;;;1.55;1.00;;;5.30;90.40;;;;;;4991377;28;20050;-73
2022/11/12 01:41:04;;;;;;;1.50;1.15;;;5.30;90.40;;;;;;4974118;28;20089;-73
2022/11/12 01:43:29;;;;;;;2.30;1.15;;;5.30;90.40;;;;;;4991615;28;20069;-72
2022/11/12 01:45:56;;;;;;;1.80;1.00;;;5.30;90.40;;;;;;4990937;28;20050;-72
2022/11/12 01:48:37;;;;;;;1.77;1.20;;;5.30;90.40;;;;;;4991033;28;20027;-73
2022/11/12 01:51:04;;;;;;;2.30;1.38;;;5.30;90.50;;;;;;4991239;28;20046;-73
2022/11/12 01:53:35;;;;;;;2.85;1.42;;;5.30;90.50;;;;;;4991110;28;20049;-73
2022/11/12 01:56:03;;;;;;;3.08;1.50;;;5.20;90.40;;;;;;4990912;28;20050;-73
2022/11/12 01:58:31;;;;;;;2.55;1.20;;;5.20;90.40;;;;;;4991196;28;20030;-73
2022/11/12 02:00:59;;;;;;;3.63;1.27;;;5.20;90.50;;;;;;4993569;28;20041;-73
2022/11/12 02:03:25;;;;;;;2.40;1.30;;;5.10;90.50;;;;;;4994204;28;20110;-73
2022/11/12 02:05:56;;;;;;;2.03;1.33;;;5.20;90.50;;;;;;4994121;28;20521;-73
2022/11/12 02:08:23;;;;;;;3.55;1.58;;;5.10;90.50;;;;;;4994639;28;20072;-73
2022/11/12 02:10:50;;;;;;;2.65;1.45;;;5.20;90.50;;;;;;4994447;28;20042;-73
2022/11/12 02:15:57;;;;;;;1.92;1.17;;;5.10;90.50;;;;;;4993973;28;20046;-73
2022/11/12 02:18:23;;;;;;;2.88;1.33;;;5.10;90.50;;;;;;4993954;28;20049;-73
2022/11/12 02:20:54;;;;;;;2.05;1.20;;;5.10;90.40;;;;;;4994031;28;20035;-72
2022/11/12 02:23:19;;;;;;;2.63;1.40;;;5.20;90.50;;;;;;4994107;28;20030;-73
2022/11/12 02:25:45;;;;;;;2.15;1.27;;;5.10;90.40;;;;;;4993587;28;20456;-73
2022/11/12 02:28:11;;;;;;;2.67;1.30;;;5.10;90.40;;;;;;4976349;28;20062;-73
2022/11/12 02:30:41;;;;;;;1.40;1.15;;;5.10;90.40;;;;;;4976317;28;20035;-73
2022/11/12 02:33:06;;;;;;;2.22;1.20;;;5.10;90.40;;;;;;4993989;28;20034;-73
2022/11/12 02:35:32;;;;;;;2.17;1.20;;;5.00;90.40;;;;;;4976117;28;20031;-72
2022/11/12 02:37:58;;;;;;;2.00;1.00;;;5.00;90.40;;;;;;4960126;28;20042;-73
2022/11/12 02:40:24;;;;;;;2.00;1.17;;;5.00;90.40;;;;;;4993624;28;20101;-72
2022/11/12 02:42:50;;;;;;;2.40;1.08;;;5.00;90.40;;;;;;4993976;28;20205;-73
2022/11/12 02:45:17;;;;;;;3.03;1.60;;;5.10;90.50;;;;;;4994128;28;20113;-73
2022/11/12 02:47:43;;;;;;;2.25;1.30;;;5.00;90.40;;;;;;4993998;28;20035;-72
2022/11/12 02:50:10;;;;;;;2.55;1.20;;;5.00;90.40;;;;;;4994008;28;20035;-73
2022/11/12 02:52:35;;;;;;;2.97;1.33;;;5.00;90.40;;;;;;4993987;28;20398;-73
2022/11/12 02:55:01;;;;;;;2.70;1.50;;;5.00;90.50;;;;;;4993406;28;20049;-73
2022/11/12 02:57:29;;;;;;;3.15;1.40;;;5.00;90.50;;;;;;4993475;28;20053;-72
2022/11/12 02:59:55;;;;;;;2.25;1.30;;;5.00;90.50;;;;;;4993478;28;20086;-73
2022/11/12 03:02:20;;;;;;;2.80;1.30;;;4.90;90.50;;;;;;4975898;28;20501;-73
2022/11/12 03:04:46;;;;;;;2.38;1.30;;;5.00;90.50;;;;;;4993866;28;20034;-73
2022/11/12 03:07:12;;;;;;;1.48;1.10;;;5.00;90.50;;;;;;4958977;28;20035;-72
2022/11/12 03:09:37;;;;;;;1.35;1.00;;;4.90;90.70;;;;;;4993322;28;20034;-72
2022/11/12 03:12:03;;;;;;;1.63;1.13;;;4.90;90.50;;;;;;4993353;28;20038;-72
2022/11/12 03:14:29;;;;;;;2.83;1.40;;;4.90;90.50;;;;;;4975618;28;20121;-73
2022/11/12 03:16:54;;;;;;;2.28;1.30;;;4.90;90.50;;;;;;4993007;28;20371;-72
2022/11/12 03:19:20;;;;;;;2.15;1.27;;;4.90;90.50;;;;;;4992886;28;20089;-73
2022/11/12 03:21:46;;;;;;;3.05;1.40;;;4.90;90.50;;;;;;4992996;28;20074;-73
2022/11/12 03:24:11;;;;;;;2.15;1.20;;;4.80;90.50;;;;;;4992914;28;20042;-73
2022/11/12 03:26:37;;;;;;;2.42;1.30;;;4.90;90.50;;;;;;4993324;28;20049;-73
2022/11/12 03:29:03;;;;;;;2.72;1.20;;;4.80;90.50;;;;;;4992937;28;20042;-73
2022/11/12 03:31:29;;;;;;;2.03;1.17;;;4.90;90.50;;;;;;4992699;28;20061;-72
2022/11/12 03:33:55;;;;;;;2.13;1.20;;;4.80;90.50;;;;;;4992918;28;20034;-73
2022/11/12 03:36:21;;;;;;;2.33;1.20;;;4.80;90.50;;;;;;4992971;28;20034;-73
2022/11/12 03:38:46;;;;;;;2.80;1.23;;;4.80;90.50;;;;;;4992769;28;20073;-72
2022/11/12 03:41:12;;;;;;;2.22;1.30;;;4.80;90.50;;;;;;4992619;28;20062;-72
2022/11/12 03:43:38;;;;;;;2.20;1.17;;;4.90;90.50;;;;;;4992574;28;20463;-72
2022/11/12 03:46:03;;;;;;;2.08;1.10;;;4.80;90.50;;;;;;4992670;28;20101;-73
2022/11/12 03:48:29;;;;;;;1.65;1.08;;;4.80;90.50;;;;;;4974728;28;20030;-73
2022/11/12 03:50:57;;;;;;;1.77;1.13;;;4.80;90.50;;;;;;4992284;28;20053;-73
2022/11/12 03:53:23;;;;;;;1.10;1.00;;;4.80;90.50;;;;;;4974751;28;20479;-73
2022/11/12 03:55:49;;;;;;;1.35;0.90;;;4.80;90.50;;;;;;4992682;28;20033;-73
2022/11/12 03:58:14;;;;;;;1.42;0.90;;;4.80;90.50;;;;;;4992701;28;20500;-72
2022/11/12 04:00:40;;;;;;;0.80;0.80;;;4.80;90.50;;;;;;4974827;28;20031;-73
2022/11/12 04:03:06;;;;;;;1.55;0.98;;;4.80;90.50;;;;;;4992630;28;20169;-73
2022/11/12 04:11:00;;;;;;;1.83;0.90;;;4.70;90.40;;;;;;4992245;28;20061;-73
2022/11/12 04:13:26;;;;;;;1.55;0.90;;;4.70;90.50;;;;;;4992418;28;20085;-72
2022/11/12 04:27:06;;;;;;;1.38;0.75;;;4.70;90.50;;;;;;4977078;28;20060;-72
2022/11/12 04:32:15;;;;;;;0.70;0.70;;;4.70;90.50;;;;;;4992034;28;20128;-72
2022/11/12 04:34:41;;;;;;;1.58;0.90;;;4.70;90.50;;;;;;4992497;28;20478;-72
2022/11/12 04:37:07;;;;;;;1.67;0.80;;;4.60;90.50;;;;;;4992102;28;20030;-72
2022/11/12 04:39:32;;;;;;;1.52;0.98;;;4.60;90.50;;;;;;4992290;28;20048;-73
2022/11/12 04:47:15;;;;;;;0.80;0.80;;;4.60;90.50;;;;;;4991727;28;20454;-73
2022/11/12 04:49:41;;;;;;;1.27;0.80;;;4.60;90.50;;;;;;4991966;28;20034;-73
2022/11/12 04:52:07;;;;;;;0.93;0.80;;;4.60;90.60;;;;;;4991614;28;20489;-73
2022/11/12 04:54:33;;;;;;;0.82;0.73;;;4.50;90.50;;;;;;4991674;28;20046;-73
2022/11/12 04:57:00;;;;;;;1.25;0.95;;;4.50;90.60;;;;;;4992080;28;20043;-73
2022/11/12 04:59:25;;;;;;;1.23;0.80;;;4.50;90.90;;;;;;4991716;28;20048;-72
2022/11/12 05:01:52;;;;;;;1.75;0.80;;;4.50;90.60;;;;;;4992155;28;20034;-73
2022/11/12 05:04:18;;;;;;;0.98;0.70;;;4.50;90.60;;;;;;4974538;28;20042;-73
2022/11/12 05:06:50;;;;;;;0.95;0.70;;;4.50;90.60;;;;;;4974386;28;20046;-73
2022/11/12 05:09:17;;;;;;;0.77;0.73;;;4.50;90.60;;;;;;4991900;28;20038;-73
2022/11/12 05:11:42;;;;;;;1.23;0.98;;;4.50;90.60;;;;;;4991777;28;20092;-72
2022/11/12 05:14:08;;;;;;;2.22;0.80;;;4.50;90.60;;;;;;4991684;28;20038;-73
2022/11/12 05:16:34;;;;;;;0.68;0.68;;;4.50;90.60;;;;;;4974427;28;20077;-73
2022/11/12 05:19:00;;;;;;;1.15;0.80;;;4.40;90.60;;;;;;4958203;28;20085;-73
2022/11/12 05:24:08;;;;;;;1.23;0.80;;;4.40;90.50;;;;;;4991713;28;20045;-72
2022/11/12 05:26:34;;;;;;;0.80;0.60;;;4.40;90.60;;;;;;4991711;28;20054;-72
2022/11/12 05:28:59;;;;;;;0.75;0.60;;;4.40;90.60;;;;;;4992047;28;20402;-72
2022/11/12 05:31:25;;;;;;;1.15;0.80;;;4.50;90.60;;;;;;4991778;28;20030;-73
2022/11/12 05:33:51;;;;;;;1.33;0.80;;;4.40;90.50;;;;;;4992016;28;20117;-73
2022/11/12 05:36:16;;;;;;;1.40;0.60;;;4.40;90.50;;;;;;4994344;28;20537;-73
2022/11/12 05:38:42;;;;;;;1.40;0.80;;;4.50;90.50;;;;;;4995118;28;20042;-72
2022/11/12 05:41:08;;;;;;;0.80;0.60;;;4.40;90.50;;;;;;4978032;28;20050;-73
2022/11/12 05:43:33;;;;;;;1.00;0.70;;;4.50;90.50;;;;;;4995163;28;20113;-72
2022/11/12 05:45:59;;;;;;;2.17;1.00;;;4.40;90.50;;;;;;4977187;28;20058;-73
2022/11/12 05:48:25;;;;;;;0.95;0.73;;;4.40;90.50;;;;;;4994724;28;20475;-73
2022/11/12 05:50:51;;;;;;;1.17;0.80;;;4.40;90.60;;;;;;4977336;28;20114;-73
2022/11/12 05:53:17;;;;;;;0.88;0.70;;;4.40;90.60;;;;;;4977257;28;20070;-73
2022/11/12 05:55:43;;;;;;;0.73;0.70;;;4.40;90.50;;;;;;4994487;28;20094;-73
2022/11/12 05:58:09;;;;;;;1.00;0.80;;;4.40;90.50;;;;;;4977103;28;20050;-73
2022/11/12 06:00:37;;;;;;;0.73;0.73;;;4.40;90.60;;;;;;4994945;28;20113;-73
2022/11/12 06:03:05;;;;;;;0.95;0.80;;;4.40;90.60;;;;;;4977506;28;20034;-73
2022/11/12 06:05:32;;;;;;;1.35;0.82;;;4.40;90.60;;;;;;4994715;28;20039;-73
2022/11/12 06:07:57;;;;;;;0.88;0.68;;;4.30;90.50;;;;;;4976892;28;20513;-73
2022/11/12 06:10:24;;;;;;;0.60;0.60;;;4.40;90.60;;;;;;4977118;28;20035;-73
2022/11/12 06:12:50;;;;;;;1.33;0.70;;;4.40;90.60;;;;;;4994854;28;20037;-73
2022/11/12 06:15:16;;;;;;;0.93;0.70;;;4.30;90.50;;;;;;4994476;28;20101;-72
2022/11/12 06:17:42;;;;;;;1.48;0.95;;;4.40;90.60;;;;;;4994291;28;20039;-73
2022/11/12 06:20:08;;;;;;;1.20;0.80;;;4.40;90.50;;;;;;4994259;28;20031;-73
2022/11/12 06:22:34;;;;;;;0.68;0.68;;;4.30;90.50;;;;;;4976861;28;20038;-73
2022/11/12 06:24:59;;;;;;;1.58;0.80;;;4.30;90.50;;;;;;4976695;28;20052;-73
2022/11/12 06:27:25;;;;;;;0.85;0.52;;;4.40;90.60;;;;;;4994186;28;20038;-73
2022/11/12 06:29:51;;;;;;;1.23;0.60;;;4.40;90.60;;;;;;4960680;28;20061;-73
2022/11/12 06:32:16;;;;;;;0.65;0.40;;;4.40;90.50;;;;;;4994133;28;20042;-72
2022/11/12 06:34:42;;;;;;;0.80;0.60;;;4.40;90.50;;;;;;4976937;28;20031;-72
2022/11/12 06:37:08;;;;;;;0.65;0.60;;;4.40;90.50;;;;;;4994147;28;20125;-73
2022/11/12 06:39:33;;;;;;;1.10;0.73;;;4.30;90.50;;;;;;4993991;28;20089;-74
2022/11/12 06:42:00;;;;;;;0.98;0.70;;;4.30;90.60;;;;;;4993941;28;20089;-73
2022/11/12 06:44:26;;;;;;;1.38;0.75;;;4.30;90.60;;;;;;4976834;28;20062;-73
2022/11/12 06:46:52;;;;;;;0.60;0.57;;;4.40;90.60;;;;;;4976163;28;20089;-73
2022/11/12 06:49:18;;;;;;;0.55;0.55;;;4.40;90.60;;;;;;4994093;28;20371;-73
2022/11/12 06:51:44;;;;;;;0.93;0.60;;;4.40;90.60;;;;;;4976328;28;20034;-73
2022/11/12 06:54:10;;;;;;;1.30;0.80;;;4.30;90.50;;;;;;4976291;28;20117;-73
2022/11/12 06:56:35;;;;;;;1.05;0.70;;;4.40;90.60;;;;;;4976265;28;20034;-73
2022/11/12 06:59:01;;;;;;;0.90;0.73;;;4.40;90.60;;;;;;4994024;28;20109;-73
2022/11/12 07:01:27;;;;;;;1.00;0.70;;;4.40;90.60;;;;;;4975984;28;20394;-73
2022/11/12 07:03:53;;;;;;;0.73;0.60;;;4.40;90.50;;;;;;4993636;28;20043;-73
2022/11/12 07:06:19;;;;;;;0.63;0.60;;;4.40;90.50;;;;;;4993679;28;20557;-73
2022/11/12 07:08:46;;;;;;;0.80;0.60;;;4.40;90.50;;;;;;4976448;28;20171;-73
2022/11/12 07:11:12;;;;;;;0.60;0.60;;;4.40;90.50;;;;;;4993904;28;20086;-73
2022/11/12 07:13:38;;;;;;;0.55;0.50;;;4.40;90.50;;;;;;4993626;28;20074;-72
2022/11/12 07:16:06;;;;;;;0.70;0.70;;;4.40;90.50;;;;;;4993584;28;20109;-73
2022/11/12 07:18:33;;;;;;;1.20;0.77;;;4.40;90.50;;;;;;4975848;28;20046;-73
2022/11/12 07:21:03;;;;;;;0.70;0.43;;;4.40;90.50;;;;;;4975929;28;21318;-73
2022/11/12 07:23:32;;;;;;;1.00;0.55;;;4.40;90.60;;;;;;4993408;28;20042;-73
2022/11/12 07:26:01;;;;;;;0.85;0.70;;;4.50;90.60;;;;;;4993633;28;20443;-73
2022/11/12 07:28:27;;;;;;;0.68;0.60;;;4.40;90.50;;;;;;4993510;28;20466;-73
2022/11/12 07:30:57;;;;;;;0.70;0.55;;;4.40;90.80;;;;;;4993317;28;20121;-73
2022/11/12 07:33:22;;;;;;;1.23;0.70;;;4.60;90.50;;;;;;4975820;28;20036;-72
2022/11/12 07:35:48;;;;;;;0.80;0.60;;;4.50;90.50;;;;;;4976285;28;20064;-72
2022/11/12 07:38:14;;;;;;;0.68;0.50;;;4.50;90.50;;;;;;4993457;28;20050;-73
2022/11/12 07:40:40;;;;;;;0.70;0.52;;;4.60;90.50;;;;;;4993483;28;20478;-72
2022/11/12 07:43:05;;;;;;;2.08;0.60;;;4.70;90.40;;;;;;4993648;28;20023;-73
2022/11/12 07:45:31;;;;;;;1.45;0.63;;;4.70;90.40;;;;;;4993115;28;20125;-72
2022/11/12 07:47:58;;;;;;;1.10;0.75;;;4.70;90.40;;;;;;4993085;28;20093;-73
2022/11/12 07:50:24;;;;;;;0.75;0.57;;;4.70;90.40;;;;;;4993562;28;20089;-72
2022/11/12 07:52:50;;;;;;;0.52;0.50;;;4.80;90.40;;;;;;4993530;28;20383;-72
2022/11/12 07:55:16;;;;;;;0.70;0.52;;;4.80;90.30;;;;;;4992828;28;20054;-73
2022/11/12 07:57:41;;;;;;;0.75;0.52;;;4.80;90.30;;;;;;4991880;28;20475;-72
2022/11/12 08:00:08;;;;;;;0.47;0.47;;;4.80;90.30;;;;;;4959517;28;20034;-73
2022/11/12 08:02:34;;;;;;;0.50;0.40;;;4.90;90.30;;;;;;4976163;28;20031;-72
2022/11/12 08:04:59;;;;;;;0.73;0.57;;;5.00;90.30;;;;;;4975561;28;20049;-73
2022/11/12 08:07:25;;;;;;;0.30;0.30;;;5.00;90.30;;;;;;4992825;28;20049;-73
2022/11/12 08:09:51;;;;;;;0.63;0.60;;;5.10;90.20;;;;;;4993345;28;20129;-73
2022/11/12 08:12:16;;;;;;;0.38;0.38;;;5.10;90.20;;;;;;4993220;28;20027;-73
2022/11/12 08:14:42;;;;;;;0.57;0.40;;;5.20;90.20;;;;;;4992747;28;20367;-72
2022/11/12 08:17:08;;;;;;;0.50;0.43;;;5.30;90.20;;;;;;4992828;28;20046;-73
2022/11/12 08:19:33;;;;;;;0.57;0.47;;;5.30;90.10;;;;;;4975249;28;20034;-73
2022/11/12 08:21:59;;;;;;;0.70;0.60;;;5.40;90.10;;;;;;4993136;28;20035;-72
2022/11/12 08:24:25;;;;;;;0.60;0.60;;;5.50;90.10;;;;;;4975206;28;20398;-73
2022/11/12 08:26:50;;;;;;;0.88;0.70;;;5.50;90.00;;;;;;4992449;28;20052;-73
2022/11/12 08:29:16;;;;;;;0.73;0.60;;;5.60;90.00;;;;;;4992368;28;20445;-73
2022/11/12 08:31:41;;;;;;;1.17;0.82;;;5.70;90.00;;;;;;4992299;28;20038;-73
2022/11/12 08:34:14;;;;;;;0.80;0.57;;;5.70;90.00;;;;;;4958813;28;20038;-73
2022/11/12 08:36:40;;;;;;;0.93;0.70;;;5.80;90.00;;;;;;4992634;28;20057;-73
2022/11/12 08:39:06;;;;;;;0.60;0.50;;;6.00;90.00;;;;;;4974966;28;20034;-74
2022/11/12 08:41:32;;;;;;;0.55;0.47;;;5.90;89.70;;;;;;4974824;28;20051;-73
2022/11/12 08:43:58;;;;;;;0.50;0.50;;;6.10;89.80;;;;;;4974952;28;20042;-73
2022/11/12 08:46:24;;;;;;;0.60;0.60;;;6.10;89.70;;;;;;4992330;28;20057;-73
2022/11/12 08:48:49;;;;;;;0.68;0.65;;;6.20;89.70;;;;;;4992659;28;20038;-73
2022/11/12 08:51:15;;;;;;;0.70;0.60;;;6.30;89.70;;;;;;4992124;28;20161;-73
2022/11/12 08:53:41;;;;;;;0.75;0.60;;;6.40;89.70;;;;;;4992382;28;20039;-73
2022/11/12 08:56:06;;;;;;;0.93;0.60;;;6.30;89.50;;;;;;4974584;28;20034;-73
2022/11/12 08:58:32;;;;;;;0.50;0.47;;;6.50;89.60;;;;;;4992561;28;20525;-73
2022/11/12 09:01:06;;;;;;;0.57;0.50;;;6.50;89.50;;;;;;4975172;28;20125;-73
2022/11/12 09:03:32;;;;;;;1.25;0.60;;;6.50;89.50;;;;;;4991985;28;20036;-73
2022/11/12 09:06:01;;;;;;;1.08;0.60;;;6.60;89.50;;;;;;4992178;28;20402;-73
2022/11/12 09:08:27;;;;;;;1.05;0.65;;;6.70;89.50;;;;;;4992623;28;20045;-73
2022/11/12 09:10:53;;;;;;;0.60;0.60;;;6.70;89.40;;;;;;4995672;28;20031;-74
2022/11/12 09:13:21;;;;;;;0.70;0.60;;;6.80;89.40;;;;;;4961770;28;20030;-73
2022/11/12 09:15:47;;;;;;;1.08;0.60;;;6.90;89.40;;;;;;4978331;28;20121;-73
2022/11/12 09:18:16;;;;;;;0.40;0.40;;;6.90;89.40;;;;;;4977739;28;20065;-73
2022/11/12 09:20:42;;;;;;;1.15;0.68;;;7.00;89.40;;;;;;4977793;28;20482;-73
2022/11/12 09:23:11;;;;;;;0.80;0.60;;;7.00;89.40;;;;;;4995218;28;20053;-73
2022/11/12 09:25:38;;;;;;;1.65;0.70;;;7.10;89.40;;;;;;4961658;28;20620;-74
2022/11/12 09:28:10;;;;;;;0.82;0.60;;;7.10;89.40;;;;;;4995474;28;20061;-74
2022/11/12 09:30:37;;;;;;;0.52;0.50;;;7.10;89.40;;;;;;4977970;28;20545;-75
2022/11/12 09:33:03;;;;;;;0.50;0.50;;;7.20;89.40;;;;;;4977708;28;20138;-74
2022/11/12 09:35:29;;;;;;;0.65;0.50;;;7.30;89.40;;;;;;4960766;28;20027;-75
2022/11/12 09:37:58;;;;;;;0.47;0.45;;;7.30;89.40;;;;;;4977571;28;20041;-75
2022/11/12 09:40:41;;;;;;;0.50;0.50;;;7.40;89.50;;;;;;4995566;28;20045;-75
2022/11/12 09:43:15;;;;;;;0.50;0.50;;;7.40;89.50;;;;;;4994954;28;20045;-75
2022/11/12 09:45:41;;;;;;;0.75;0.50;;;7.50;89.40;;;;;;4977359;28;20483;-75
2022/11/12 09:48:11;;;;;;;0.75;0.50;;;7.50;89.40;;;;;;4961621;28;20042;-75
2022/11/12 09:50:45;;;;;;;1.05;0.70;;;7.60;89.50;;;;;;4995256;28;20045;-75
2022/11/12 09:53:17;;;;;;;0.77;0.70;;;7.60;89.40;;;;;;4994584;28;20038;-75
2022/11/12 09:55:47;;;;;;;0.60;0.60;;;7.70;89.40;;;;;;4994722;28;20035;-75
2022/11/12 09:58:14;;;;;;;0.50;0.50;;;7.70;89.30;;;;;;4994540;28;20077;-75
2022/11/12 10:00:45;;;;;;;0.60;0.55;;;7.70;89.30;;;;;;4977216;28;20029;-74
2022/11/12 10:03:32;;;;;;;1.02;0.65;;;7.90;89.30;;;;;;4994577;28;20125;-74
2022/11/12 10:06:05;;;;;;;0.73;0.60;;;7.90;89.30;;;;;;4994306;28;20391;-75
2022/11/12 10:08:58;;;;;;;0.38;0.38;;;8.00;89.20;;;;;;4994372;28;20031;-75
2022/11/12 10:14:45;;;;;;;1.05;0.60;;;8.10;89.10;;;;;;4994426;28;20121;-75
2022/11/12 10:17:33;;;;;;;0.68;0.68;;;8.20;89.00;;;;;;4977041;28;20039;-75
2022/11/12 10:20:15;;;;;;;1.02;0.55;;;8.20;88.90;;;;;;4994070;28;20073;-74
2022/11/12 10:23:05;;;;;;;0.95;0.80;;;8.30;88.90;;;;;;4977542;28;20038;-75
2022/11/12 10:25:31;;;;;;;0.75;0.43;;;8.40;88.90;;;;;;4977245;28;20038;-73
2022/11/12 10:27:57;;;;;;;0.68;0.60;;;8.40;88.80;;;;;;4960832;28;20422;-73
2022/11/12 10:30:24;;;;;;;0.98;0.70;;;8.50;88.80;;;;;;4994327;28;20045;-73
2022/11/12 10:32:51;;;;;;;0.65;0.60;;;8.60;88.80;;;;;;4994711;28;20034;-73
2022/11/12 10:35:20;;;;;;;0.52;0.52;;;8.60;88.70;;;;;;4994596;28;20375;-72
2022/11/12 10:38:00;;;;;;;0.52;0.52;;;8.80;88.80;;;;;;4994526;28;20475;-73
2022/11/12 10:40:30;;;;;;;0.57;0.57;;;8.80;88.70;;;;;;4976587;28;20445;-73
2022/11/12 10:43:00;;;;;;;0.88;0.55;;;8.90;88.60;;;;;;4994039;28;20030;-72
2022/11/12 10:45:27;;;;;;;0.73;0.65;;;8.90;88.50;;;;;;4976481;28;20042;-73
2022/11/12 10:47:52;;;;;;;0.70;0.70;;;9.00;88.60;;;;;;4994418;28;20057;-73
2022/11/12 10:50:30;;;;;;;1.05;0.88;;;9.00;88.40;;;;;;4976905;28;20038;-73
2022/11/12 10:53:01;;;;;;;0.73;0.70;;;9.10;88.50;;;;;;4994318;28;20400;-73
2022/11/12 10:55:31;;;;;;;0.60;0.60;;;9.20;88.40;;;;;;4976372;28;20109;-72
2022/11/12 10:58:11;;;;;;;1.20;1.00;;;9.20;88.40;;;;;;4976373;28;20154;-73
2022/11/12 11:00:52;;;;;;;0.98;0.70;;;9.30;88.40;;;;;;4976518;28;20046;-72
2022/11/12 11:03:24;;;;;;;0.88;0.73;;;9.40;88.20;;;;;;4993753;28;20150;-72
2022/11/12 11:05:55;;;;;;;0.80;0.70;;;9.50;88.10;;;;;;4976481;28;20414;-73
2022/11/12 11:08:33;;;;;;;0.60;0.60;;;9.60;88.00;;;;;;4976576;28;20042;-73
2022/11/12 11:11:21;;;;;;;0.90;0.68;;;9.70;88.00;;;;;;4993999;28;20262;-72
2022/11/12 11:13:49;;;;;;;0.60;0.60;;;9.80;87.80;;;;;;4993529;28;20602;-73
2022/11/12 11:16:21;;;;;;;1.00;0.70;;;9.80;87.70;;;;;;4993808;28;20108;-73
2022/11/12 11:18:55;;;;;;;1.27;0.75;;;9.90;88.30;;;;;;4993719;28;20066;-73
2022/11/12 11:21:49;;;;;;;1.13;0.90;;;9.90;87.70;;;;;;4993496;28;20121;-73
2022/11/12 11:24:42;;;;;;;0.70;0.70;;;10.10;87.70;;;;;;4993949;28;20035;-74
2022/11/12 11:27:29;;;;;;;1.05;0.80;;;10.10;87.60;;;;;;4993343;28;20124;-73
2022/11/12 11:30:13;;;;;;;0.70;0.70;;;10.20;87.60;;;;;;4976551;28;20034;-73
2022/11/12 11:32:54;;;;;;;0.95;0.75;;;10.30;87.50;;;;;;4993499;28;20030;-73
2022/11/12 11:35:42;;;;;;;1.17;0.70;;;10.30;87.50;;;;;;4993975;28;20391;-73
2022/11/12 11:38:43;;;;;;;0.73;0.60;;;10.40;87.50;;;;;;4978458;28;20065;-73
2022/11/12 11:41:37;;;;;;;1.02;0.75;;;10.50;87.50;;;;;;4992793;28;20044;-73
2022/11/12 11:44:17;;;;;;;0.98;0.77;;;10.50;87.40;;;;;;4992874;28;20034;-73
2022/11/12 11:47:23;;;;;;;1.00;0.70;;;10.70;87.20;;;;;;4993532;28;20046;-73
2022/11/12 11:50:10;;;;;;;1.10;0.70;;;10.80;87.10;;;;;;4978759;28;20618;-73
2022/11/12 11:53:01;;;;;;;1.33;0.70;;;10.90;87.00;;;;;;4993047;28;20499;-73
2022/11/12 11:55:50;;;;;;;0.98;0.80;;;11.00;86.80;;;;;;4975752;28;20398;-73
2022/11/12 11:58:44;;;;;;;0.82;0.73;;;11.10;86.70;;;;;;4993570;28;20039;-73
2022/11/12 12:01:20;;;;;;;0.60;0.60;;;11.30;86.70;;;;;;4992919;28;20180;-73
2022/11/12 12:04:11;;;;;;;0.70;0.70;;;11.30;86.40;;;;;;4993274;28;20039;-73
2022/11/12 12:07:04;;;;;;;0.82;0.70;;;11.50;86.30;;;;;;4977803;28;20487;-73
2022/11/12 12:09:44;;;;;;;0.75;0.75;;;11.60;86.20;;;;;;4978216;28;20117;-73
2022/11/12 12:12:40;;;;;;;1.33;0.73;;;11.60;86.10;;;;;;4992755;28;20440;-72
2022/11/12 12:15:40;;;;;;;0.68;0.60;;;11.80;85.90;;;;;;4993019;28;20363;-73
2022/11/12 12:18:24;;;;;;;0.70;0.70;;;11.80;85.70;;;;;;4993090;28;20065;-73
2022/11/12 12:21:08;;;;;;;1.13;0.80;;;12.00;85.70;;;;;;4992879;28;20141;-73
2022/11/12 12:23:43;;;;;;;0.77;0.70;;;12.00;85.60;;;;;;4975544;28;20042;-73
2022/11/12 12:26:18;;;;;;;0.82;0.70;;;12.20;85.50;;;;;;4992456;28;20109;-73
2022/11/12 12:28:59;;;;;;;0.82;0.70;;;12.30;85.40;;;;;;4960048;28;20498;-73
2022/11/12 12:31:34;;;;;;;0.95;0.70;;;12.30;85.20;;;;;;4974986;28;20386;-73
2022/11/12 12:34:05;;;;;;;1.00;0.80;;;12.30;85.10;;;;;;4976255;28;20537;-73
2022/11/12 12:36:37;;;;;;;1.08;0.70;;;12.50;85.10;;;;;;4992578;28;20170;-73
2022/11/12 12:39:24;;;;;;;0.60;0.50;;;12.50;84.80;;;;;;4992825;28;20035;-73
2022/11/12 12:42:03;;;;;;;1.00;0.80;;;12.60;84.70;;;;;;4992263;28;20503;-73
2022/11/12 12:47:18;;;;;;;0.63;0.60;;;12.70;84.70;;;;;;4992207;28;20047;-73
2022/11/12 12:49:46;;;;;;;0.85;0.80;;;12.80;84.60;;;;;;4974931;28;20499;-73
2022/11/12 12:52:14;;;;;;;0.52;0.52;;;12.80;84.60;;;;;;4975479;28;20062;-73
2022/11/12 12:54:56;;;;;;;1.15;0.80;;;12.90;84.60;;;;;;4992111;28;20041;-73
2022/11/12 12:57:29;;;;;;;0.70;0.70;;;13.00;84.60;;;;;;4992120;28;20056;-73
2022/11/12 13:00:31;;;;;;;0.73;0.70;;;13.00;84.40;;;;;;4992592;28;20470;-73
2022/11/12 13:02:57;;;;;;;0.82;0.70;;;13.00;84.30;;;;;;4992179;28;20491;-73
2022/11/12 13:05:31;;;;;;;1.00;0.90;;;13.10;84.40;;;;;;4992728;28;20081;-73
2022/11/12 13:08:01;;;;;;;0.80;0.70;;;13.10;84.40;;;;;;4991996;28;20380;-73
2022/11/12 13:10:47;;;;;;;1.30;0.95;;;13.30;84.50;;;;;;4974771;28;20062;-73
2022/11/12 13:13:35;;;;;;;1.40;0.85;;;13.20;84.30;;;;;;4992542;28;20056;-74
2022/11/12 13:16:02;;;;;;;0.80;0.68;;;13.30;84.30;;;;;;4978161;28;20045;-73
2022/11/12 13:18:58;;;;;;;0.60;0.60;;;13.30;84.20;;;;;;4992449;28;20065;-73
2022/11/12 13:21:24;;;;;;;0.80;0.60;;;13.40;84.20;;;;;;4974528;28;20039;-73
2022/11/12 13:26:51;;;;;;;0.95;0.60;;;13.50;84.20;;;;;;4991836;28;20061;-73
2022/11/12 13:29:42;;;;;;;0.70;0.70;;;13.50;84.10;;;;;;4992264;28;20039;-73
2022/11/12 13:32:28;;;;;;;0.82;0.70;;;13.50;84.00;;;;;;4991966;28;20066;-73
2022/11/12 13:35:23;;;;;;;0.80;0.70;;;13.60;84.10;;;;;;4991640;28;20069;-73
2022/11/12 13:37:52;;;;;;;1.02;0.70;;;13.60;84.00;;;;;;4992265;28;20094;-73
2022/11/12 13:40:37;;;;;;;0.75;0.65;;;13.60;84.00;;;;;;4992305;28;20101;-73
2022/11/12 13:43:32;;;;;;;1.02;0.75;;;13.60;84.00;;;;;;4974703;28;20514;-73
2022/11/12 13:46:19;;;;;;;1.30;0.90;;;13.70;84.10;;;;;;4961867;28;20097;-73
2022/11/12 13:48:55;;;;;;;0.60;0.57;;;13.70;84.00;;;;;;4976886;28;20044;-73